KLUX

Laurens County Airport

Laurens, South Carolina, USA
METAR KLUX 190255Z AUTO 00000KT 10SM CLR 21/20 A2995 RMK AO2
Observed Flight Rules
Sep-19 @ 02:55 UTC (24 minutes ago) Visual Flight Rules
Visibility Clouds
10 miles
  • Clear skies
Temperatures Readings
Current 21°C / 70°F
Dewpoint 20°C / 68°F
Humidity 94%
Altimeter 29.95" Hg
Pressure 1014 hPa
Elevation 213
METAR KLUX 190255Z AUTO 00000KT 10SM CLR 21/20 A2995 RMK AO2
Observed Flight Rules
Sep-19 @ 02:55 UTC
(24 minutes ago)
VFR
Clouds
  • Clear skies
Temperature Dewpoint
21°C / 70°F 20°C / 68°F
Humidity Altimeter Pressure
94% 29.95" Hg 1014 hPa